createdAt,value
2019-01-06T00:05:40.177Z,14.43
2019-01-06T00:12:10.652Z,16.33
2019-01-06T00:18:41.222Z,14.80
2019-01-06T00:25:16.197Z,13.27
2019-01-06T00:31:33.064Z,13.90
2019-01-06T00:37:56.760Z,13.97
2019-01-06T00:44:27.418Z,14.83
2019-01-06T00:50:50.823Z,15.77
2019-01-06T00:57:31.198Z,19.30
2019-01-06T01:04:05.545Z,17.27
2019-01-06T01:10:27.031Z,14.37
2019-01-06T01:16:55.470Z,16.77
2019-01-06T01:23:18.827Z,16.13
2019-01-06T01:29:42.325Z,16.87
2019-01-06T01:36:07.614Z,16.63
2019-01-06T01:42:30.021Z,15.67
2019-01-06T01:49:12.918Z,17.07
2019-01-06T01:55:43.381Z,14.37
2019-01-06T02:02:14.245Z,14.37
2019-01-06T02:08:31.692Z,13.63
2019-01-06T02:14:56.371Z,13.63
2019-01-06T02:21:33.401Z,15.33
2019-01-06T02:27:58.366Z,14.10
2019-01-06T02:34:25.799Z,16.53
2019-01-06T02:40:53.730Z,15.63
2019-01-06T02:47:15.675Z,15.73
2019-01-06T02:53:43.141Z,17.63
2019-01-06T03:00:23.228Z,14.90
2019-01-06T03:06:46.828Z,15.90
2019-01-06T03:13:10.857Z,15.87
2019-01-06T03:19:36.098Z,16.50
2019-01-06T03:26:03.461Z,15.97
2019-01-06T03:32:40.387Z,16.10
2019-01-06T03:39:03.608Z,17.17
2019-01-06T03:45:31.081Z,20.00
2019-01-06T03:51:55.762Z,15.83
2019-01-06T03:58:12.694Z,15.53
2019-01-06T04:04:37.636Z,13.40
2019-01-06T04:11:01.183Z,13.93
2019-01-06T04:17:25.759Z,14.83
2019-01-06T04:23:59.258Z,15.00
2019-01-06T04:30:42.418Z,15.23
2019-01-06T04:37:02.429Z,17.83
2019-01-06T04:43:40.121Z,12.87
2019-01-06T04:50:07.550Z,14.03
2019-01-06T04:56:31.281Z,14.40
2019-01-06T05:02:55.827Z,13.17
2019-01-06T05:09:19.548Z,11.30
2019-01-06T05:15:41.183Z,13.93
2019-01-06T05:22:20.883Z,16.10
2019-01-06T05:29:01.102Z,20.63
2019-01-06T05:35:24.651Z,24.53
2019-01-06T05:41:48.418Z,24.10
2019-01-06T05:48:04.082Z,20.90
2019-01-06T05:54:29.030Z,24.90
2019-01-06T06:01:09.452Z,24.07
2019-01-06T06:07:43.091Z,18.83
2019-01-06T06:14:06.990Z,20.37
2019-01-06T06:20:46.706Z,26.90
2019-01-06T06:27:10.451Z,19.47
2019-01-06T06:33:38.001Z,22.00
2019-01-06T06:40:08.830Z,21.10
2019-01-06T06:46:36.653Z,16.83
2019-01-06T06:53:16.460Z,22.63
2019-01-06T06:59:50.109Z,24.07
2019-01-06T07:06:11.202Z,21.00
2019-01-06T07:12:43.042Z,22.27
2019-01-06T07:19:06.493Z,21.10
2019-01-06T07:25:32.366Z,20.73
2019-01-06T07:32:06.512Z,22.53
2019-01-06T07:38:30.715Z,18.53
2019-01-06T07:45:04.542Z,18.23
2019-01-06T07:51:27.871Z,17.87
2019-01-06T07:58:01.489Z,19.53
2019-01-06T08:04:26.221Z,20.20
2019-01-06T08:10:56.841Z,18.67
2019-01-06T08:17:21.426Z,19.83
2019-01-06T08:24:01.423Z,25.43
2019-01-06T08:30:29.808Z,17.50
2019-01-06T08:36:53.508Z,22.10
2019-01-06T08:43:33.331Z,22.93
2019-01-06T08:50:01.326Z,23.20
2019-01-06T08:56:37.395Z,20.63
2019-01-06T09:03:14.321Z,22.50
2019-01-06T09:09:45.956Z,29.70
2019-01-06T09:16:09.473Z,26.37
2019-01-06T09:22:32.781Z,21.90
2019-01-06T09:29:03.694Z,23.07
2019-01-06T09:35:28.912Z,20.73
2019-01-06T09:41:52.484Z,25.97
2019-01-06T09:48:26.026Z,26.67
2019-01-06T09:54:48.526Z,20.07
2019-01-06T10:01:13.100Z,19.77
2019-01-06T10:07:33.639Z,20.67
2019-01-06T10:14:10.691Z,16.97
2019-01-06T10:20:45.338Z,16.47
2019-01-06T10:27:15.876Z,22.03
2019-01-06T10:33:39.594Z,20.40
2019-01-06T10:40:10.434Z,17.30
2019-01-06T10:46:53.257Z,13.97
2019-01-06T10:53:25.184Z,15.87
2019-01-06T10:59:52.886Z,14.57
2019-01-06T11:06:16.957Z,17.33
2019-01-06T11:12:56.052Z,14.80
2019-01-06T11:19:33.038Z,14.27
2019-01-06T11:25:48.711Z,14.03
2019-01-06T11:32:12.330Z,14.70
2019-01-06T11:38:43.139Z,13.10
2019-01-06T11:45:10.731Z,14.30
2019-01-06T11:51:41.399Z,14.93
2019-01-06T11:58:15.173Z,10.83
2019-01-06T12:04:58.364Z,13.20
2019-01-06T12:11:41.629Z,13.93
2019-01-06T12:18:04.920Z,13.47
2019-01-06T12:24:41.640Z,13.00
2019-01-06T12:31:09.308Z,14.00
2019-01-06T12:37:34.166Z,11.43
2019-01-06T12:43:58.926Z,10.93
2019-01-06T12:50:27.079Z,11.50
2019-01-06T12:56:50.319Z,17.53
2019-01-06T13:03:13.638Z,14.40
2019-01-06T13:09:50.570Z,24.73
2019-01-06T13:16:24.650Z,18.60
2019-01-06T13:22:57.786Z,16.13
2019-01-06T13:29:22.637Z,13.90
2019-01-06T13:35:50.338Z,13.23
2019-01-06T13:42:13.742Z,12.03
2019-01-06T13:48:37.169Z,13.90
2019-01-06T13:55:01.842Z,10.70
2019-01-06T14:01:32.637Z,11.83
2019-01-06T14:07:55.956Z,11.03
2019-01-06T14:14:19.771Z,9.63
2019-01-06T14:20:43.812Z,13.10
2019-01-06T14:27:07.424Z,10.50
2019-01-06T14:33:43.707Z,12.30
2019-01-06T14:40:08.248Z,17.60
2019-01-06T14:46:31.665Z,9.33
2019-01-06T14:53:10.128Z,13.73
2019-01-06T14:59:37.666Z,9.37
2019-01-06T15:06:02.615Z,6.10
2019-01-06T15:12:36.296Z,7.03
2019-01-06T15:18:58.982Z,11.30
2019-01-06T15:25:42.437Z,6.63
2019-01-06T15:32:22.571Z,8.27
2019-01-06T15:38:53.529Z,6.77
2019-01-06T15:45:22.766Z,6.13
2019-01-06T15:51:59.374Z,7.17
2019-01-06T15:58:22.639Z,8.43
2019-01-06T16:04:56.358Z,8.47
2019-01-06T16:11:27.233Z,8.60
2019-01-06T16:17:57.562Z,9.50
2019-01-06T16:24:20.602Z,9.87
2019-01-06T16:30:41.515Z,13.03
2019-01-06T16:37:18.725Z,13.60
2019-01-06T16:43:41.705Z,23.53
2019-01-06T16:50:21.595Z,10.33
2019-01-06T16:57:06.776Z,12.83
2019-01-06T17:03:47.255Z,14.00
2019-01-06T17:10:10.865Z,12.93
2019-01-06T17:16:50.960Z,15.53
2019-01-06T17:23:14.159Z,15.83
2019-01-06T17:29:50.954Z,13.50
2019-01-06T17:36:14.598Z,15.13
2019-01-06T17:42:38.602Z,16.73
2019-01-06T17:49:02.263Z,20.07
2019-01-06T17:55:27.134Z,17.53
2019-01-06T18:02:04.389Z,21.90
2019-01-06T18:08:28.051Z,17.57
2019-01-06T18:14:54.991Z,23.23
2019-01-06T18:21:18.753Z,17.60
2019-01-06T18:27:43.914Z,20.50
2019-01-06T18:34:17.558Z,23.17
2019-01-06T18:40:41.845Z,21.43
2019-01-06T18:47:12.651Z,21.90
2019-01-06T18:53:43.648Z,19.93
2019-01-06T19:00:17.659Z,26.83
2019-01-06T19:06:40.831Z,23.47
2019-01-06T19:13:04.524Z,21.87
2019-01-06T19:19:42.482Z,25.33
2019-01-06T19:26:05.461Z,25.30
2019-01-06T19:32:40.546Z,23.70
2019-01-06T19:39:04.053Z,28.43
2019-01-06T19:45:40.890Z,25.40
2019-01-06T19:52:17.644Z,26.57
2019-01-06T19:58:40.468Z,25.27
2019-01-06T20:04:57.989Z,30.07
2019-01-06T20:11:22.648Z,27.70
2019-01-06T20:17:46.100Z,26.07
2019-01-06T20:24:25.909Z,27.53
2019-01-06T20:30:49.231Z,30.27
2019-01-06T20:37:16.918Z,27.57
2019-01-06T20:43:41.533Z,31.50
2019-01-06T20:50:03.169Z,24.70
2019-01-06T20:56:33.113Z,30.23
2019-01-06T21:03:00.928Z,27.97
2019-01-06T21:09:26.527Z,24.83
2019-01-06T21:15:54.520Z,26.00
2019-01-06T21:22:37.609Z,25.37
2019-01-06T21:29:00.301Z,25.00
2019-01-06T21:35:24.086Z,28.23
2019-01-06T21:41:58.479Z,28.23
2019-01-06T21:48:29.584Z,30.77
2019-01-06T21:54:52.804Z,26.07
2019-01-06T22:01:16.115Z,24.50
2019-01-06T22:07:39.425Z,32.80
2019-01-06T22:14:13.451Z,33.30
2019-01-06T22:20:50.239Z,30.20
2019-01-06T22:27:33.325Z,36.60
2019-01-06T22:33:57.992Z,33.63
2019-01-06T22:40:28.069Z,31.40
2019-01-06T22:46:58.760Z,33.07
2019-01-06T22:53:22.177Z,27.27
2019-01-06T22:59:56.017Z,30.33
2019-01-06T23:06:15.548Z,27.57
2019-01-06T23:12:37.169Z,28.07
2019-01-06T23:19:17.833Z,29.57
2019-01-06T23:25:41.289Z,28.87
2019-01-06T23:32:06.142Z,26.73
2019-01-06T23:38:43.120Z,32.73
2019-01-06T23:45:07.744Z,33.30
2019-01-06T23:51:41.999Z,30.00
2019-01-06T23:58:05.610Z,32.27
